Time;durP1;ratioP1;P1;durP2;ratioP2;P2;SDS_P1;SDS_P2;PMS_P1;PMS_P2;Temp;Humidity;BMP_temperature;BMP_pressure;BME280_temperature;BME280_humidity;BME280_pressure;Samples;Min_cycle;Max_cycle;Signal;HPM_P1;HPM_P2
2022/07/29 00:01:05;;;;;;;1.87;1.43;;;20.20;96.40;;;;;;5057325;28;20554;-90
2022/07/29 00:03:32;;;;;;;3.37;1.47;;;20.10;96.80;;;;;;5052768;28;20452;-90
2022/07/29 00:06:01;;;;;;;3.33;1.13;;;20.10;96.60;;;;;;5058493;28;20568;-90
2022/07/29 00:08:28;;;;;;;1.20;0.93;;;20.10;96.70;;;;;;5060385;28;20470;-90
2022/07/29 00:10:55;;;;;;;1.47;1.37;;;20.00;96.50;;;;;;5058866;28;20459;-91
2022/07/29 00:13:23;;;;;;;1.20;1.03;;;20.00;96.70;;;;;;5064498;28;20981;-90
2022/07/29 00:15:50;;;;;;;1.10;1.00;;;20.00;96.70;;;;;;5057151;28;20471;-90
2022/07/29 00:18:18;;;;;;;1.47;1.37;;;19.90;97.00;;;;;;5063684;28;20534;-89
2022/07/29 00:20:45;;;;;;;1.53;1.00;;;19.90;96.90;;;;;;5055426;28;21278;-90
2022/07/29 00:23:15;;;;;;;1.20;1.03;;;19.80;97.20;;;;;;5066666;28;21018;-89
2022/07/29 00:25:42;;;;;;;1.17;1.10;;;19.70;96.90;;;;;;5059732;28;20491;-90
2022/07/29 00:28:09;;;;;;;1.43;1.33;;;19.70;97.20;;;;;;5048072;28;20448;-90
2022/07/29 00:30:36;;;;;;;1.33;1.23;;;19.70;98.30;;;;;;5064544;28;20525;-90
2022/07/29 00:33:03;;;;;;;1.83;1.70;;;19.70;98.90;;;;;;5058528;28;20468;-90
2022/07/29 00:35:46;;;;;;;1.77;1.67;;;19.50;99.30;;;;;;5058793;28;20462;-90
2022/07/29 00:38:16;;;;;;;1.30;1.20;;;19.40;99.90;;;;;;5052192;28;20463;-91
2022/07/29 00:40:44;;;;;;;2.50;1.83;;;19.30;99.90;;;;;;5065783;28;20996;-90
2022/07/29 00:43:12;;;;;;;1.50;1.40;;;19.10;99.90;;;;;;5055259;28;20441;-90
2022/07/29 00:45:39;;;;;;;1.33;1.23;;;19.00;99.90;;;;;;5064293;28;20535;-90
2022/07/29 00:48:08;;;;;;;2.10;1.67;;;18.80;99.90;;;;;;5069317;28;20444;-90
2022/07/29 00:50:36;;;;;;;3.30;2.80;;;18.50;99.90;;;;;;5063520;28;20466;-88
2022/07/29 00:53:05;;;;;;;2.47;2.27;;;18.60;99.90;;;;;;5051964;28;20437;-91
2022/07/29 00:55:33;;;;;;;3.13;2.73;;;18.50;99.90;;;;;;5060759;28;20449;-90
2022/07/29 00:58:01;;;;;;;2.13;1.93;;;18.60;99.90;;;;;;5066811;28;20512;-90
2022/07/29 01:00:30;;;;;;;1.80;1.70;;;18.40;99.90;;;;;;5058101;28;20448;-90
2022/07/29 01:02:57;;;;;;;2.60;2.40;;;18.40;99.90;;;;;;5064928;28;20946;-90
2022/07/29 01:05:27;;;;;;;2.37;2.17;;;18.40;99.90;;;;;;5059444;28;21091;-90
2022/07/29 01:07:55;;;;;;;1.87;1.73;;;18.30;99.90;;;;;;5065649;28;20994;-90
2022/07/29 01:10:24;;;;;;;2.03;1.93;;;18.30;99.90;;;;;;5056315;28;20846;-90
2022/07/29 01:12:55;;;;;;;3.87;1.93;;;18.30;99.90;;;;;;5058806;28;20534;-90
2022/07/29 01:15:24;;;;;;;3.90;1.90;;;18.40;99.90;;;;;;5061573;28;20464;-90
2022/07/29 01:17:58;;;;;;;3.63;1.43;;;18.50;99.90;;;;;;5060126;28;20499;-89
2022/07/29 01:20:32;;;;;;;2.30;2.07;;;18.50;99.90;;;;;;5063532;28;20446;-90
2022/07/29 01:23:41;;;;;;;2.40;1.67;;;18.50;99.90;;;;;;5050594;28;20589;-91
2022/07/29 01:26:34;;;;;;;1.90;1.80;;;18.50;99.90;;;;;;5058462;28;21040;-90
2022/07/29 01:29:10;;;;;;;2.83;2.17;;;18.40;99.90;;;;;;5055463;28;20469;-90
2022/07/29 01:31:44;;;;;;;2.70;2.37;;;18.50;99.90;;;;;;5056712;28;20930;-90
2022/07/29 01:34:19;;;;;;;2.23;1.73;;;18.50;99.90;;;;;;5060548;28;20444;-90
2022/07/29 01:36:51;;;;;;;2.37;2.27;;;18.50;99.90;;;;;;5054873;28;20826;-91
2022/07/29 01:39:21;;;;;;;2.97;2.00;;;18.60;99.90;;;;;;5063375;28;20537;-90
2022/07/29 01:41:56;;;;;;;1.83;1.70;;;18.70;99.90;;;;;;5062504;28;20458;-90
2022/07/29 01:44:31;;;;;;;2.43;1.93;;;18.60;99.90;;;;;;5056160;28;20540;-90
2022/07/29 01:47:02;;;;;;;3.00;2.70;;;18.60;99.90;;;;;;5060505;28;20493;-91
2022/07/29 01:49:34;;;;;;;2.47;2.30;;;18.50;99.90;;;;;;5063602;28;20441;-91
2022/07/29 01:52:04;;;;;;;1.90;1.80;;;18.40;99.90;;;;;;5055040;28;20470;-90
2022/07/29 01:54:35;;;;;;;3.60;2.40;;;18.20;99.90;;;;;;5061502;28;20812;-90
2022/07/29 01:57:04;;;;;;;2.00;1.90;;;18.10;99.90;;;;;;5057587;28;20470;-89
2022/07/29 01:59:36;;;;;;;1.63;1.53;;;18.00;99.90;;;;;;5063457;28;20459;-90
2022/07/29 02:02:03;;;;;;;4.70;2.57;;;17.90;99.90;;;;;;5059405;28;20584;-91
2022/07/29 02:04:32;;;;;;;2.60;2.40;;;17.90;99.90;;;;;;5056832;28;20452;-89
2022/07/29 02:07:04;;;;;;;2.63;2.43;;;17.90;99.90;;;;;;5057119;28;20485;-90
2022/07/29 02:09:34;;;;;;;3.37;2.17;;;18.00;99.90;;;;;;5055131;28;20485;-91
2022/07/29 02:12:02;;;;;;;4.03;2.20;;;18.00;99.90;;;;;;5060470;28;20667;-91
2022/07/29 02:14:35;;;;;;;2.87;2.60;;;17.90;99.90;;;;;;5072378;28;21100;-91
2022/07/29 02:17:03;;;;;;;3.20;1.87;;;17.80;99.90;;;;;;5081808;28;20497;-91
2022/07/29 02:19:32;;;;;;;1.80;1.63;;;17.80;99.90;;;;;;5081584;28;20478;-91
2022/07/29 02:22:01;;;;;;;3.93;3.63;;;17.80;99.90;;;;;;5069389;28;20542;-91
2022/07/29 02:24:31;;;;;;;2.63;2.43;;;17.90;99.90;;;;;;5061822;28;20469;-91
2022/07/29 02:27:01;;;;;;;2.40;2.20;;;18.00;99.90;;;;;;5058593;28;20475;-91
2022/07/29 02:29:31;;;;;;;2.30;2.17;;;18.00;99.90;;;;;;5058691;28;20441;-91
2022/07/29 02:32:01;;;;;;;2.77;2.57;;;17.90;99.90;;;;;;5066070;28;20459;-91
2022/07/29 02:34:30;;;;;;;2.57;2.37;;;17.90;99.90;;;;;;5061126;28;20550;-91
2022/07/29 02:36:57;;;;;;;4.37;2.67;;;17.90;99.90;;;;;;5061885;28;20811;-91
2022/07/29 02:39:27;;;;;;;3.37;2.40;;;17.90;99.90;;;;;;5060902;28;20469;-91
2022/07/29 02:42:00;;;;;;;3.20;2.40;;;17.90;99.90;;;;;;5060513;28;20484;-91
2022/07/29 02:44:28;;;;;;;2.83;2.57;;;18.10;99.90;;;;;;5060831;28;20489;-91
2022/07/29 02:47:05;;;;;;;5.20;2.77;;;18.10;99.90;;;;;;5054460;28;20948;-91
2022/07/29 02:49:39;;;;;;;3.70;3.03;;;18.00;99.90;;;;;;5058206;28;20477;-91
2022/07/29 02:52:12;;;;;;;3.57;3.20;;;18.00;99.90;;;;;;5062579;28;20491;-91
2022/07/29 02:54:43;;;;;;;2.97;2.73;;;18.10;99.90;;;;;;5062834;28;20465;-91
2022/07/29 02:57:19;;;;;;;3.13;2.50;;;18.10;99.90;;;;;;5049477;28;20464;-90
2022/07/29 02:59:49;;;;;;;4.77;3.20;;;18.00;99.90;;;;;;5071725;28;21082;-90
2022/07/29 03:02:18;;;;;;;4.37;3.10;;;18.00;99.90;;;;;;5069385;28;20500;-91
2022/07/29 03:04:47;;;;;;;3.40;3.07;;;18.00;99.90;;;;;;5061936;28;20989;-90
2022/07/29 03:07:19;;;;;;;3.63;2.90;;;17.90;99.90;;;;;;5076081;28;20484;-91
2022/07/29 03:09:47;;;;;;;3.40;2.93;;;17.90;99.90;;;;;;5067755;28;20464;-90
2022/07/29 03:12:15;;;;;;;3.70;3.10;;;17.90;99.90;;;;;;5092118;28;20456;-91
2022/07/29 03:14:44;;;;;;;3.13;2.93;;;17.80;99.90;;;;;;5071265;28;20502;-91
2022/07/29 03:17:11;;;;;;;2.50;2.30;;;17.80;99.90;;;;;;5065161;28;20488;-91
2022/07/29 03:19:40;;;;;;;2.40;2.30;;;17.80;99.90;;;;;;5065279;28;20452;-91
2022/07/29 03:22:08;;;;;;;3.07;2.87;;;17.80;99.90;;;;;;5061105;28;21130;-90
2022/07/29 03:24:36;;;;;;;3.03;2.83;;;17.70;99.90;;;;;;5060133;28;20515;-90
2022/07/29 03:27:05;;;;;;;4.80;3.60;;;17.80;99.90;;;;;;5054517;28;20491;-90
2022/07/29 03:29:32;;;;;;;3.63;3.30;;;17.80;99.90;;;;;;5055436;28;20461;-91
2022/07/29 03:31:59;;;;;;;2.50;2.30;;;17.90;99.90;;;;;;5059194;28;20470;-90
2022/07/29 03:34:26;;;;;;;10.33;3.30;;;18.00;99.90;;;;;;5057933;28;20470;-91
2022/07/29 03:36:55;;;;;;;2.70;2.50;;;18.00;99.90;;;;;;5065184;28;20456;-94
2022/07/29 03:39:26;;;;;;;3.20;3.00;;;18.00;99.90;;;;;;5062859;28;20541;-92
2022/07/29 03:41:56;;;;;;;2.73;2.47;;;18.00;99.90;;;;;;5063820;28;20522;-92
2022/07/29 03:44:25;;;;;;;4.47;3.30;;;18.00;99.90;;;;;;5060648;28;20467;-91
2022/07/29 03:46:55;;;;;;;3.77;3.40;;;18.20;99.90;;;;;;5054948;28;20487;-92
2022/07/29 03:49:24;;;;;;;2.87;2.60;;;18.20;99.90;;;;;;5059882;28;20475;-91
2022/07/29 03:51:51;;;;;;;3.17;2.97;;;18.20;99.90;;;;;;5051277;28;20459;-91
2022/07/29 03:54:20;;;;;;;3.83;3.50;;;18.20;99.90;;;;;;5063618;28;20462;-92
2022/07/29 03:56:51;;;;;;;7.83;3.73;;;18.30;99.90;;;;;;5057253;28;21175;-92
2022/07/29 03:59:19;;;;;;;4.23;3.70;;;18.40;99.90;;;;;;5052609;28;20938;-91
2022/07/29 04:01:47;;;;;;;4.13;3.50;;;18.40;99.90;;;;;;5061694;28;20534;-92
2022/07/29 04:04:14;;;;;;;2.93;2.43;;;18.40;99.90;;;;;;5064409;28;20458;-91
2022/07/29 04:06:43;;;;;;;2.73;2.53;;;18.40;99.90;;;;;;5066970;28;20484;-92
2022/07/29 04:09:11;;;;;;;4.40;4.00;;;18.40;99.90;;;;;;5055549;28;20452;-90
2022/07/29 04:11:41;;;;;;;3.50;3.20;;;18.50;99.90;;;;;;5058635;28;20942;-93
2022/07/29 04:14:08;;;;;;;3.63;2.73;;;18.60;99.90;;;;;;5061843;28;20559;-91
2022/07/29 04:16:35;;;;;;;2.90;2.70;;;18.60;99.90;;;;;;5060322;28;20469;-91
2022/07/29 04:19:02;;;;;;;3.10;2.90;;;18.60;99.90;;;;;;5059677;28;20511;-91
2022/07/29 04:21:29;;;;;;;3.63;3.43;;;18.80;99.90;;;;;;5061700;28;20467;-92
2022/07/29 04:23:56;;;;;;;4.37;2.50;;;18.80;99.90;;;;;;5056191;28;20463;-91
2022/07/29 04:26:23;;;;;;;3.30;2.93;;;18.90;99.90;;;;;;5059099;28;20483;-92
2022/07/29 04:28:52;;;;;;;3.20;3.00;;;19.10;99.90;;;;;;5063880;28;20470;-92
2022/07/29 04:31:19;;;;;;;3.73;3.40;;;19.10;99.90;;;;;;5066333;28;20469;-91
2022/07/29 04:33:46;;;;;;;2.20;1.97;;;19.20;99.90;;;;;;5067575;28;21167;-92
2022/07/29 04:36:13;;;;;;;2.37;2.27;;;19.20;99.90;;;;;;5059895;28;20456;-91
2022/07/29 04:38:40;;;;;;;5.17;3.13;;;19.30;99.90;;;;;;5058879;28;20464;-92
2022/07/29 04:41:08;;;;;;;3.60;2.70;;;19.30;99.90;;;;;;5056764;28;20915;-91
2022/07/29 04:43:35;;;;;;;2.20;2.00;;;19.40;99.90;;;;;;5062784;28;20465;-92
2022/07/29 04:46:04;;;;;;;3.67;2.83;;;19.50;99.90;;;;;;5061580;28;20484;-92
2022/07/29 04:48:31;;;;;;;2.53;2.33;;;19.60;99.90;;;;;;5061885;28;20809;-92
2022/07/29 04:50:58;;;;;;;3.00;2.70;;;19.60;99.90;;;;;;5065216;28;20629;-92
2022/07/29 04:53:25;;;;;;;2.83;2.63;;;19.70;99.90;;;;;;5073425;28;20462;-91
2022/07/29 04:55:53;;;;;;;2.43;2.23;;;19.70;99.90;;;;;;5077979;28;20473;-92
2022/07/29 04:58:20;;;;;;;3.00;2.70;;;19.60;99.90;;;;;;5085548;28;20500;-93
2022/07/29 05:00:47;;;;;;;3.20;3.00;;;19.60;99.90;;;;;;5069969;28;20454;-90
2022/07/29 05:03:15;;;;;;;3.30;3.03;;;19.70;99.90;;;;;;5062292;28;20455;-91
2022/07/29 05:05:43;;;;;;;2.90;2.70;;;19.70;99.90;;;;;;5067674;28;20471;-92
2022/07/29 05:08:10;;;;;;;3.30;3.03;;;19.70;99.90;;;;;;5062161;28;20833;-94
2022/07/29 05:10:37;;;;;;;4.23;3.03;;;19.60;99.90;;;;;;5066380;28;20460;-94
2022/07/29 05:13:06;;;;;;;3.97;3.67;;;19.70;99.90;;;;;;5058787;28;20520;-95
2022/07/29 05:15:33;;;;;;;3.50;3.20;;;19.70;99.90;;;;;;5061795;28;20944;-93
2022/07/29 05:18:02;;;;;;;2.10;2.00;;;19.50;99.90;;;;;;5060145;28;21002;-94
2022/07/29 05:20:31;;;;;;;3.67;2.87;;;19.30;99.90;;;;;;5058660;28;20460;-94
2022/07/29 05:22:59;;;;;;;4.00;3.63;;;19.30;99.90;;;;;;5057220;28;20475;-93
2022/07/29 05:25:26;;;;;;;3.17;2.97;;;19.10;99.90;;;;;;5065076;28;20930;-94
2022/07/29 05:27:54;;;;;;;3.80;3.50;;;19.10;99.90;;;;;;5064472;28;20564;-95
2022/07/29 05:30:21;;;;;;;2.83;2.60;;;19.10;99.90;;;;;;5061994;28;20459;-93
2022/07/29 05:32:48;;;;;;;2.50;2.30;;;19.20;99.90;;;;;;5077492;28;20453;-92
2022/07/29 05:35:16;;;;;;;2.83;2.47;;;19.20;99.90;;;;;;5078056;28;21209;-90
2022/07/29 05:37:44;;;;;;;2.80;2.60;;;19.10;99.90;;;;;;5072025;28;20486;-93
2022/07/29 05:40:12;;;;;;;3.33;3.10;;;19.00;99.90;;;;;;5077054;28;20451;-94
2022/07/29 05:42:39;;;;;;;4.23;3.83;;;19.00;99.90;;;;;;5079729;28;20453;-94
2022/07/29 05:45:07;;;;;;;2.33;2.13;;;19.10;99.90;;;;;;5089483;28;20458;-94
2022/07/29 05:47:34;;;;;;;2.80;2.53;;;19.00;99.90;;;;;;5090415;28;20835;-94
2022/07/29 05:50:01;;;;;;;3.77;3.37;;;19.00;99.90;;;;;;5077981;28;20473;-94
2022/07/29 05:52:28;;;;;;;2.70;2.50;;;19.10;99.90;;;;;;5073232;28;20579;-95
2022/07/29 05:54:57;;;;;;;2.53;2.33;;;19.10;99.90;;;;;;5063658;28;20452;-95
2022/07/29 05:57:25;;;;;;;2.90;2.10;;;19.10;99.90;;;;;;5064592;28;20449;-94
2022/07/29 05:59:53;;;;;;;2.80;2.47;;;19.10;99.90;;;;;;5057983;28;20478;-94
2022/07/29 06:02:20;;;;;;;2.50;2.37;;;19.20;99.90;;;;;;5066714;28;20547;-94
2022/07/29 06:04:48;;;;;;;4.10;2.73;;;19.20;99.90;;;;;;5066781;28;20451;-95
2022/07/29 06:07:15;;;;;;;1.97;1.87;;;19.30;99.90;;;;;;5063452;28;20482;-94
2022/07/29 06:09:43;;;;;;;3.37;3.10;;;19.30;99.90;;;;;;5061716;28;20456;-94
2022/07/29 06:12:11;;;;;;;2.97;2.73;;;19.40;99.90;;;;;;5060254;28;20458;-94
2022/07/29 06:14:39;;;;;;;2.33;2.13;;;19.50;99.90;;;;;;5058299;28;20516;-94
2022/07/29 06:17:06;;;;;;;2.70;2.50;;;19.60;99.90;;;;;;5066442;28;20483;-93
2022/07/29 06:19:36;;;;;;;3.47;3.17;;;19.70;99.90;;;;;;5065655;28;20571;-92
2022/07/29 06:22:03;;;;;;;2.30;2.10;;;19.80;99.90;;;;;;5066600;28;20459;-93
2022/07/29 06:24:30;;;;;;;3.17;2.97;;;19.50;99.90;;;;;;5060440;28;20527;-94
2022/07/29 06:26:57;;;;;;;3.33;3.03;;;19.60;99.90;;;;;;5061800;28;21037;-94
2022/07/29 06:29:26;;;;;;;2.40;2.20;;;19.70;99.90;;;;;;5063841;28;20458;-94
2022/07/29 06:31:53;;;;;;;3.47;2.87;;;19.70;99.90;;;;;;5066737;28;20466;-93
2022/07/29 06:34:20;;;;;;;3.20;3.00;;;19.80;99.90;;;;;;5065016;28;20462;-94
2022/07/29 06:36:49;;;;;;;4.50;3.30;;;19.90;99.90;;;;;;5066125;28;20456;-95
2022/07/29 06:39:16;;;;;;;3.73;3.23;;;19.90;99.90;;;;;;5063067;28;21159;-95
2022/07/29 06:41:43;;;;;;;2.53;2.33;;;20.00;99.90;;;;;;5065720;28;20467;-94
2022/07/29 06:44:10;;;;;;;2.53;2.43;;;20.20;99.90;;;;;;5064540;28;20462;-95
2022/07/29 06:46:39;;;;;;;3.77;3.40;;;20.40;99.90;;;;;;5063215;28;20466;-95
2022/07/29 06:49:06;;;;;;;2.33;2.23;;;20.50;99.90;;;;;;5061091;28;20475;-95
2022/07/29 06:51:33;;;;;;;2.87;2.63;;;20.40;99.90;;;;;;5064416;28;20447;-95
2022/07/29 06:54:01;;;;;;;4.10;2.67;;;20.40;99.90;;;;;;5068630;28;20948;-93
2022/07/29 06:56:28;;;;;;;3.67;3.43;;;20.50;99.90;;;;;;5066678;28;20443;-94
2022/07/29 06:58:55;;;;;;;5.07;4.63;;;20.30;99.90;;;;;;5064313;28;21152;-95
2022/07/29 07:01:23;;;;;;;3.97;3.33;;;20.30;99.90;;;;;;5065542;28;20464;-95
2022/07/29 07:03:51;;;;;;;5.90;3.30;;;20.40;99.90;;;;;;5067439;28;21025;-95
2022/07/29 07:06:18;;;;;;;3.47;2.83;;;20.50;99.90;;;;;;5064180;28;20878;-95
2022/07/29 07:08:45;;;;;;;6.33;3.03;;;20.50;99.90;;;;;;5064316;28;20481;-94
2022/07/29 07:11:13;;;;;;;4.17;3.00;;;20.50;99.90;;;;;;5057273;28;20451;-96
2022/07/29 07:13:40;;;;;;;4.13;2.80;;;20.40;99.90;;;;;;5064442;28;20455;-95
2022/07/29 07:16:07;;;;;;;3.53;3.20;;;20.40;99.90;;;;;;5065220;28;20479;-96
2022/07/29 07:18:34;;;;;;;3.27;3.07;;;20.50;99.90;;;;;;5064737;28;20487;-96
2022/07/29 07:21:04;;;;;;;3.47;3.17;;;20.70;99.90;;;;;;5063804;28;20470;-94
2022/07/29 07:23:31;;;;;;;5.40;3.00;;;20.80;99.90;;;;;;5052019;28;20999;-94
2022/07/29 07:25:59;;;;;;;3.60;3.33;;;20.90;99.90;;;;;;5061848;28;20468;-95
2022/07/29 07:28:26;;;;;;;4.10;2.67;;;21.20;99.90;;;;;;5062675;28;20484;-95
2022/07/29 07:30:53;;;;;;;3.57;3.27;;;21.10;99.90;;;;;;5065332;28;20539;-93
2022/07/29 07:33:20;;;;;;;3.80;3.50;;;21.50;99.90;;;;;;5065703;28;20464;-93
2022/07/29 07:35:48;;;;;;;3.00;2.80;;;21.80;99.90;;;;;;5067296;28;20439;-92
2022/07/29 07:38:16;;;;;;;2.83;2.43;;;22.00;99.90;;;;;;5065409;28;20509;-92
2022/07/29 07:40:46;;;;;;;2.83;2.63;;;22.50;99.90;;;;;;5064465;28;20439;-92
2022/07/29 07:43:13;;;;;;;3.43;3.20;;;23.00;99.90;;;;;;5071420;28;20444;-93
2022/07/29 07:45:41;;;;;;;4.33;2.93;;;23.20;99.90;;;;;;5070700;28;20460;-92
2022/07/29 07:48:09;;;;;;;6.33;3.50;;;23.40;99.90;;;;;;5074568;28;20497;-92
2022/07/29 07:50:37;;;;;;;2.40;2.20;;;23.20;99.90;;;;;;5074473;28;20483;-93
2022/07/29 07:53:04;;;;;;;3.47;3.00;;;23.10;99.90;;;;;;5093834;28;20454;-93
2022/07/29 07:55:33;;;;;;;3.30;3.10;;;23.00;99.90;;;;;;5090813;28;20458;-93
2022/07/29 07:58:00;;;;;;;3.50;3.20;;;23.20;99.90;;;;;;5068127;28;20463;-93
2022/07/29 08:00:27;;;;;;;5.10;3.50;;;23.30;99.90;;;;;;5068334;28;20452;-92
2022/07/29 08:02:54;;;;;;;4.67;3.00;;;23.40;99.90;;;;;;5070224;28;20966;-93
2022/07/29 08:05:22;;;;;;;6.43;3.50;;;23.60;99.90;;;;;;5069493;28;20440;-93
2022/07/29 08:07:49;;;;;;;3.60;3.30;;;23.90;99.80;;;;;;5081177;28;20478;-93
2022/07/29 08:10:51;;;;;;;3.40;3.10;;;24.20;99.80;;;;;;5086095;28;20455;-92
2022/07/29 08:13:07;;;;;;;3.57;3.03;;;24.50;99.20;;;;;;5082118;28;20503;-92
2022/07/29 08:15:34;;;;;;;3.00;2.80;;;24.40;97.30;;;;;;5090627;28;20552;-91
2022/07/29 08:18:02;;;;;;;3.17;2.97;;;24.50;97.90;;;;;;5076754;28;20464;-94
2022/07/29 08:20:29;;;;;;;3.23;2.97;;;24.80;97.00;;;;;;5095491;28;20469;-96
2022/07/29 08:22:56;;;;;;;2.83;2.63;;;24.70;96.80;;;;;;5089444;28;20462;-94
2022/07/29 08:25:23;;;;;;;3.73;2.80;;;24.10;98.10;;;;;;5082467;28;20968;-96
2022/07/29 08:27:51;;;;;;;4.20;3.90;;;24.50;98.30;;;;;;5076012;28;20479;-94
2022/07/29 08:30:19;;;;;;;4.00;2.90;;;24.90;96.30;;;;;;5072357;28;20459;-95
2022/07/29 08:32:50;;;;;;;3.37;3.07;;;24.60;96.80;;;;;;5072572;28;20493;-96
2022/07/29 08:35:17;;;;;;;3.77;3.47;;;24.90;97.30;;;;;;5059135;28;20453;-94
2022/07/29 08:37:44;;;;;;;5.30;2.20;;;25.10;95.50;;;;;;5069698;28;20487;-94
2022/07/29 08:40:12;;;;;;;2.10;2.00;;;25.20;95.50;;;;;;5068500;28;20462;-95
2022/07/29 08:42:39;;;;;;;2.73;2.53;;;25.30;95.10;;;;;;5069402;28;20934;-95
2022/07/29 08:45:07;;;;;;;2.70;2.50;;;25.20;95.70;;;;;;5066163;28;20461;-95
2022/07/29 08:51:07;;;;;;;3.27;2.80;;;25.50;94.70;;;;;;5065393;28;20485;-95
2022/07/29 08:53:37;;;;;;;5.60;3.83;;;25.70;94.40;;;;;;5078097;28;20448;-93
2022/07/29 08:56:05;;;;;;;3.57;3.20;;;25.80;94.10;;;;;;5076067;28;20529;-95
2022/07/29 08:58:39;;;;;;;4.30;3.90;;;25.70;94.10;;;;;;5077368;28;20538;-95
2022/07/29 09:01:07;;;;;;;3.20;3.03;;;25.90;93.40;;;;;;5078265;28;20462;-96
2022/07/29 09:03:41;;;;;;;6.23;3.27;;;25.60;93.50;;;;;;5078134;28;20538;-96
2022/07/29 09:06:56;;;;;;;3.10;2.80;;;25.80;94.40;;;;;;5070688;28;20443;-92
2022/07/29 09:09:24;;;;;;;2.97;2.77;;;25.50;94.30;;;;;;5056796;28;20484;-96
2022/07/29 09:11:53;;;;;;;3.53;2.70;;;25.80;93.50;;;;;;5063682;28;20444;-95
2022/07/29 09:14:25;;;;;;;5.13;2.90;;;26.00;93.40;;;;;;5070962;28;20662;-95
2022/07/29 09:16:55;;;;;;;3.60;2.83;;;26.20;92.10;;;;;;5070698;28;20486;-96
2022/07/29 09:19:30;;;;;;;2.27;2.17;;;26.50;92.00;;;;;;5071556;28;20444;-95
2022/07/29 09:21:57;;;;;;;2.93;2.70;;;26.40;91.60;;;;;;5073264;28;20505;-94
2022/07/29 09:27:35;;;;;;;4.70;3.27;;;26.30;91.10;;;;;;5072000;28;20448;-95
2022/07/29 09:30:07;;;;;;;4.03;3.33;;;26.10;91.90;;;;;;5075377;28;20459;-96
2022/07/29 09:32:54;;;;;;;3.90;3.50;;;25.70;92.00;;;;;;5069632;28;21255;-95
2022/07/29 09:35:23;;;;;;;3.13;2.83;;;25.80;92.10;;;;;;5068079;28;20483;-95
2022/07/29 09:40:35;;;;;;;3.67;3.47;;;25.90;92.20;;;;;;5065149;28;20506;-94
2022/07/29 09:43:28;;;;;;;2.90;2.60;;;26.10;91.70;;;;;;5071226;28;20493;-96
2022/07/29 09:46:10;;;;;;;2.90;2.80;;;26.00;91.20;;;;;;5070769;28;20451;-96
2022/07/29 09:48:38;;;;;;;2.87;2.67;;;26.10;90.80;;;;;;5066087;28;20482;-96
2022/07/29 09:53:48;;;;;;;3.30;2.47;;;26.00;90.80;;;;;;5071725;28;20785;-95
2022/07/29 09:56:45;;;;;;;2.83;2.40;;;26.20;88.00;;;;;;5071736;28;20460;-96
2022/07/29 09:59:28;;;;;;;3.37;2.43;;;25.80;90.10;;;;;;5062505;28;20789;-96
2022/07/29 10:02:06;;;;;;;2.10;2.00;;;26.10;88.50;;;;;;5071081;28;21236;-96
2022/07/29 10:04:48;;;;;;;2.00;1.90;;;25.70;90.70;;;;;;5076021;28;20511;-94
2022/07/29 10:07:15;;;;;;;3.43;2.50;;;26.00;90.30;;;;;;5073161;28;20455;-95
2022/07/29 10:09:54;;;;;;;1.87;1.70;;;25.90;89.80;;;;;;5074068;28;20567;-95
2022/07/29 10:12:21;;;;;;;1.70;1.60;;;26.10;90.20;;;;;;5067879;28;20663;-88
2022/07/29 10:14:50;;;;;;;2.57;2.23;;;25.80;88.40;;;;;;5066940;28;20451;-93
2022/07/29 10:17:18;;;;;;;1.57;1.47;;;25.60;89.70;;;;;;5063699;28;20842;-88
2022/07/29 10:19:46;;;;;;;3.13;1.60;;;26.70;90.10;;;;;;5059784;28;20452;-95
2022/07/29 10:22:14;;;;;;;2.77;1.57;;;27.30;85.20;;;;;;5064250;28;20471;-95
2022/07/29 10:24:42;;;;;;;1.40;1.30;;;27.20;84.20;;;;;;5059318;28;20475;-94
2022/07/29 10:27:13;;;;;;;1.97;1.87;;;27.50;84.50;;;;;;5061923;28;20506;-93
2022/07/29 10:29:44;;;;;;;1.83;1.73;;;27.40;82.10;;;;;;5047269;28;20580;-93
2022/07/29 10:32:31;;;;;;;1.40;1.30;;;27.30;81.20;;;;;;5062424;28;20480;-93
2022/07/29 10:35:21;;;;;;;1.30;1.20;;;27.50;79.70;;;;;;5062501;28;20488;-88
2022/07/29 10:38:05;;;;;;;1.27;1.17;;;27.60;80.90;;;;;;5055841;28;20490;-90
2022/07/29 10:43:32;;;;;;;1.23;0.70;;;26.50;79.80;;;;;;5044169;28;20511;-89
2022/07/29 10:46:01;;;;;;;1.87;1.77;;;27.00;79.20;;;;;;5080961;28;21134;-94
2022/07/29 10:48:30;;;;;;;1.13;1.03;;;26.80;79.60;;;;;;5086191;28;20474;-95
2022/07/29 10:51:00;;;;;;;1.43;1.23;;;27.00;81.50;;;;;;5081288;28;20464;-92
2022/07/29 10:53:50;;;;;;;0.93;0.93;;;26.90;79.30;;;;;;5081849;28;20460;-90
2022/07/29 10:56:27;;;;;;;1.17;1.07;;;27.20;84.80;;;;;;5088354;28;20498;-93
2022/07/29 10:59:25;;;;;;;0.80;0.80;;;26.60;78.40;;;;;;5073817;28;20451;-94
2022/07/29 11:01:54;;;;;;;0.93;0.93;;;26.50;78.80;;;;;;5070123;28;20479;-93
2022/07/29 11:04:57;;;;;;;1.20;1.10;;;26.60;80.10;;;;;;5067319;28;20498;-93
2022/07/29 11:07:26;;;;;;;1.47;1.37;;;26.40;82.70;;;;;;5054019;28;20487;-93
2022/07/29 11:10:21;;;;;;;0.93;0.93;;;27.00;80.80;;;;;;5067782;28;20478;-91
2022/07/29 11:12:50;;;;;;;1.30;1.20;;;27.20;77.30;;;;;;5072585;28;20479;-92
2022/07/29 11:15:20;;;;;;;7.50;1.97;;;27.30;78.20;;;;;;5068858;28;20443;-95
2022/07/29 11:18:07;;;;;;;1.50;1.33;;;27.00;78.80;;;;;;5061476;28;20499;-92
2022/07/29 11:20:37;;;;;;;1.57;1.27;;;27.30;80.50;;;;;;5067767;28;20550;-93
2022/07/29 11:26:20;;;;;;;1.17;1.13;;;27.70;82.50;;;;;;5111470;27;1348476;-85
2022/07/29 11:28:58;;;;;;;1.20;1.10;;;27.40;80.20;;;;;;5127881;27;20932;-85
2022/07/29 11:31:37;;;;;;;1.60;1.23;;;27.70;81.20;;;;;;5144287;27;20487;-85
2022/07/29 11:34:25;;;;;;;0.93;0.93;;;27.40;78.50;;;;;;5146008;27;20508;-89
2022/07/29 11:37:21;;;;;;;1.00;1.00;;;27.70;78.60;;;;;;5127150;27;20459;-87
2022/07/29 11:40:08;;;;;;;1.10;1.00;;;27.80;76.10;;;;;;5132819;27;20488;-87
2022/07/29 11:42:41;;;;;;;1.70;1.60;;;28.00;76.20;;;;;;5141636;27;20448;-87
2022/07/29 11:45:10;;;;;;;1.53;1.43;;;27.90;74.00;;;;;;5138035;27;21155;-87
2022/07/29 11:47:39;;;;;;;1.40;1.30;;;27.80;78.30;;;;;;5135957;27;21175;-87
2022/07/29 11:50:08;;;;;;;1.93;1.27;;;27.90;78.00;;;;;;5137400;27;20456;-87
2022/07/29 11:52:42;;;;;;;3.57;1.40;;;27.60;76.60;;;;;;5134644;27;20858;-87
2022/07/29 11:55:12;;;;;;;1.23;1.13;;;27.50;78.10;;;;;;5132992;27;20943;-86
2022/07/29 11:57:47;;;;;;;1.50;1.40;;;27.50;76.20;;;;;;5132408;27;20585;-87
2022/07/29 12:00:25;;;;;;;1.83;0.97;;;27.70;79.30;;;;;;5130546;27;20539;-86
2022/07/29 12:02:52;;;;;;;1.57;1.40;;;27.50;77.90;;;;;;5131209;27;20448;-87
2022/07/29 12:05:20;;;;;;;1.30;1.20;;;27.60;74.30;;;;;;5128330;27;20545;-87
2022/07/29 12:07:49;;;;;;;1.33;1.17;;;27.80;74.10;;;;;;5130656;27;20464;-87
2022/07/29 12:10:16;;;;;;;4.10;1.87;;;27.50;75.40;;;;;;5131750;27;20461;-87
2022/07/29 12:12:53;;;;;;;1.43;1.00;;;27.40;75.40;;;;;;5130827;27;20936;-87
2022/07/29 12:15:20;;;;;;;1.33;1.20;;;27.60;73.80;;;;;;5131033;27;20925;-87
2022/07/29 12:17:48;;;;;;;2.90;1.17;;;27.70;74.00;;;;;;5132373;27;20516;-87
2022/07/29 12:20:23;;;;;;;1.10;1.00;;;27.70;71.80;;;;;;5129744;27;20826;-87
2022/07/29 12:22:50;;;;;;;1.07;1.07;;;28.10;75.30;;;;;;5129271;27;20448;-87
2022/07/29 12:25:18;;;;;;;1.10;1.00;;;28.20;76.60;;;;;;5133214;27;20493;-87
2022/07/29 12:27:47;;;;;;;1.47;1.37;;;28.50;76.50;;;;;;5132891;27;20464;-87
2022/07/29 12:30:16;;;;;;;1.63;1.27;;;28.40;79.10;;;;;;5131711;27;20460;-87
2022/07/29 12:32:45;;;;;;;1.57;1.20;;;28.30;73.70;;;;;;5134621;27;20908;-87
2022/07/29 12:35:14;;;;;;;1.40;1.30;;;28.40;71.80;;;;;;5126355;27;20464;-88
2022/07/29 12:37:43;;;;;;;2.13;1.27;;;28.20;72.00;;;;;;5117180;27;20537;-87
2022/07/29 12:40:12;;;;;;;1.30;1.20;;;28.30;71.20;;;;;;5110617;27;20973;-87
2022/07/29 12:42:40;;;;;;;1.53;1.20;;;29.00;76.70;;;;;;5108365;27;20837;-87
2022/07/29 12:45:09;;;;;;;1.67;1.57;;;28.80;68.80;;;;;;5107221;27;20486;-88
2022/07/29 12:47:54;;;;;;;2.70;1.50;;;29.00;72.80;;;;;;5113916;27;20453;-87
2022/07/29 12:50:21;;;;;;;1.97;1.40;;;28.90;68.10;;;;;;5107216;28;20504;-88
2022/07/29 12:52:49;;;;;;;1.23;1.13;;;28.80;68.90;;;;;;5123852;27;20465;-88
2022/07/29 12:55:16;;;;;;;1.20;1.10;;;28.40;73.40;;;;;;5109718;27;20453;-88
2022/07/29 12:57:48;;;;;;;1.53;1.43;;;28.80;75.60;;;;;;5108763;28;20449;-87
2022/07/29 13:00:22;;;;;;;4.57;1.37;;;28.20;69.10;;;;;;5120840;27;20462;-88
2022/07/29 13:02:57;;;;;;;1.20;1.10;;;28.70;68.70;;;;;;5111603;28;20485;-88
2022/07/29 13:05:24;;;;;;;1.67;1.57;;;29.00;72.90;;;;;;5117905;27;20506;-88
2022/07/29 13:07:51;;;;;;;1.53;1.43;;;29.20;74.50;;;;;;5118282;28;20450;-88
2022/07/29 13:10:20;;;;;;;1.80;1.70;;;29.10;71.00;;;;;;5114067;28;20617;-88
2022/07/29 13:13:05;;;;;;;2.07;1.77;;;28.70;71.60;;;;;;5124640;27;20461;-88
2022/07/29 13:15:33;;;;;;;2.40;1.83;;;28.80;72.30;;;;;;5111680;27;20949;-87
2022/07/29 13:18:00;;;;;;;4.17;2.67;;;28.60;71.60;;;;;;5107149;28;20495;-87
2022/07/29 13:20:30;;;;;;;1.30;1.10;;;28.50;72.20;;;;;;5110654;27;20454;-87